Meera — V2FD7 — position and weather

sailwx.info

Track history (hours):
 
Tides and Currents Weather Stations Pressure Air Temp Water Temp Dewpoint Dewpoint Depression Visibility Wind Speed Wind Dir Waves Ship Positions

Meera

Last reported at 2017-Oct-20 05:00 UTC. Time now 2017-Oct-20 05:25 UTC.
Position N 55°28' E 014°53'.

Length 140 m; draft 7.6 m.

Type: Ship (hazmat cat A). MMSI: 305643000.

Date/timePositionNaut miles runAvg speedWind from/ knotsBaromVisibWave heightAir tempDewpointWater temp
2017-Oct-20 05:00N 55°28' E 014°53'714.4
2017-Oct-20 04:30N 55°24' E 014°42'714.4
2017-Oct-20 04:00N 55°19' E 014°34'714.5
2017-Oct-20 03:30N 55°13' E 014°26'714.8
2017-Oct-20 03:00N 55°07' E 014°17'714.4
2017-Oct-20 02:30N 55°02' E 014°09'1014.2
2017-Oct-20 01:50N 54°59' E 013°53'1314.4
2017-Oct-20 00:57N 54°54' E 013°33'714.0
2017-Oct-20 00:25N 54°52' E 013°21'914.0
2017-Oct-19 23:47N 54°48' E 013°06'413.7
2017-Oct-19 23:30N 54°47' E 012°60'913.5
2017-Oct-19 22:49N 54°44' E 012°45'413.8
2017-Oct-19 22:30N 54°43' E 012°38'713.9
2017-Oct-19 22:00N 54°39' E 012°28'713.6
2017-Oct-19 21:30N 54°34' E 012°18'713.7
2017-Oct-19 20:58N 54°27' E 012°14'612.5
2017-Oct-19 20:31N 54°24' E 012°06'913.2
2017-Oct-19 19:49N 54°25' E 011°50'413.3
2017-Oct-19 19:30N 54°25' E 011°43'713.5
2017-Oct-19 19:01N 54°28' E 011°33'713.2
2017-Oct-19 18:31N 54°31' E 011°23'612.4
2017-Oct-19 18:01N 54°34' E 011°13'611.6
2017-Oct-19 17:31N 54°35' E 011°03'612.4
2017-Oct-19 17:01N 54°34' E 010°53'713.3
2017-Oct-19 16:30N 54°33' E 010°41'713.5
2017-Oct-19 16:00N 54°32' E 010°30'912.1
2017-Oct-19 15:17N 54°28' E 010°16'13 6.0
2017-Oct-19 13:07N 54°21' E 009°58'1 5.4
2017-Oct-19 12:54N 54°20' E 009°56'3 8.0
2017-Oct-19 12:30N 54°22' E 009°51'4 7.2
2017-Oct-19 12:00N 54°21' E 009°45'3 5.7
2017-Oct-19 11:30N 54°18' E 009°43'4 7.8
2017-Oct-19 11:00N 54°16' E 009°37'4 8.1
2017-Oct-19 10:30N 54°12' E 009°34'4 8.4
2017-Oct-19 10:00N 54°11' E 009°27'4 8.4
2017-Oct-19 09:30N 54°09' E 009°21'4 8.2
2017-Oct-19 09:00N 54°05' E 009°19'4 8.2
2017-Oct-19 08:30N 54°01' E 009°18'4 8.2
2017-Oct-19 08:00N 53°57' E 009°14'4 8.6
2017-Oct-19 07:30N 53°54' E 009°09'0 0.9
2017-Oct-19 07:00N 53°54' E 009°09'1 1.5
2017-Oct-19 06:30N 53°53' E 009°08'1 1.5
2017-Oct-19 06:00N 53°53' E 009°06'0 1.0
2017-Oct-19 05:30N 53°53' E 009°06'2 3.4
2017-Oct-19 05:00N 53°53' E 009°08'510.9
2017-Oct-19 04:30N 53°52' E 009°18'816.6
2017-Oct-19 04:01N 53°45' E 009°25'816.0
2017-Oct-19 03:30N 53°38' E 009°32'714.8
2017-Oct-19 03:00N 53°34' E 009°42'510.1
2017-Oct-19 02:30N 53°33' E 009°51'4 7.7
2017-Oct-19 02:00N 53°32' E 009°57'0 0.3
2017-Oct-19 01:30N 53°32' E 009°57'0 0.0
2017-Oct-19 01:00N 53°32' E 009°57'0 0.0
2017-Oct-19 00:30N 53°32' E 009°57'0 0.0
2017-Oct-19 00:00N 53°32' E 009°57'0 0.0
2017-Oct-18 23:30N 53°32' E 009°57'0 0.0
2017-Oct-18 23:00N 53°32' E 009°57'0 0.0
2017-Oct-18 22:30N 53°32' E 009°57'0 0.0
2017-Oct-18 22:00N 53°32' E 009°57'0 0.0
2017-Oct-18 21:30N 53°32' E 009°57'0 0.9
2017-Oct-18 21:00N 53°32' E 009°56'2 3.4
2017-Oct-18 20:30N 53°30' E 009°56'0 0.3
2017-Oct-18 19:59N 53°30' E 009°56'0 0.0
2017-Oct-18 19:29N 53°30' E 009°56'0 0.0
2017-Oct-18 18:59N 53°30' E 009°56'0 0.0
2017-Oct-18 18:29N 53°30' E 009°56'0 0.0
2017-Oct-18 17:59N 53°30' E 009°56'0 0.0
2017-Oct-18 17:29N 53°30' E 009°56'0 0.0
2017-Oct-18 16:59N 53°30' E 009°56'0 0.0
2017-Oct-18 16:29N 53°30' E 009°56'0 0.0
2017-Oct-18 15:59N 53°30' E 009°56'0 0.0
2017-Oct-18 15:29N 53°30' E 009°56'0 0.0
2017-Oct-18 14:59N 53°30' E 009°56'0 0.0
2017-Oct-18 13:59N 53°30' E 009°56'0 0.1
2017-Oct-18 13:31N 53°30' E 009°56'1 1.4
2017-Oct-18 13:00N 53°31' E 009°56'2 3.2
2017-Oct-18 12:30N 53°32' E 009°55'1 1.3
2017-Oct-18 11:59N 53°32' E 009°56'0 0.0
2017-Oct-18 11:29N 53°32' E 009°56'0 0.0
2017-Oct-18 10:59N 53°32' E 009°56'0 0.0
2017-Oct-18 10:29N 53°32' E 009°56'0 0.0
2017-Oct-18 09:59N 53°32' E 009°56'0 0.0
2017-Oct-18 09:29N 53°32' E 009°56'0 0.0
2017-Oct-18 08:59N 53°32' E 009°56'0 0.0
2017-Oct-18 08:29N 53°32' E 009°56'0 0.0
2017-Oct-18 07:59N 53°32' E 009°56'0 0.0
2017-Oct-18 07:29N 53°32' E 009°56'0 0.0
2017-Oct-18 06:59N 53°32' E 009°56'0 0.0
2017-Oct-18 06:29N 53°32' E 009°56'0 0.0
2017-Oct-18 05:59N 53°32' E 009°56'0 0.0
2017-Oct-18 05:29N 53°32' E 009°56'0 0.0
2017-Oct-18 04:59N 53°32' E 009°56'0 0.0
2017-Oct-18 04:29N 53°32' E 009°56'0 0.0
2017-Oct-18 03:59N 53°32' E 009°56'0 0.0
2017-Oct-18 03:29N 53°32' E 009°56'0 0.0
2017-Oct-18 02:59N 53°32' E 009°56'0 0.0
2017-Oct-18 02:29N 53°32' E 009°56'0 0.0
2017-Oct-18 01:59N 53°32' E 009°56'0 0.0
2017-Oct-18 01:29N 53°32' E 009°56'0 0.0
2017-Oct-18 00:59N 53°32' E 009°56'0 0.0
2017-Oct-18 00:29N 53°32' E 009°56'0 0.0
2017-Oct-17 23:59N 53°32' E 009°56'0 0.0
2017-Oct-17 23:29N 53°32' E 009°56'0 0.0
2017-Oct-17 22:59N 53°32' E 009°56'0 0.0
2017-Oct-17 22:29N 53°32' E 009°56'0 0.0
2017-Oct-17 21:59N 53°32' E 009°56'0 0.0
2017-Oct-17 21:29N 53°32' E 009°56'0 0.0
2017-Oct-17 20:59N 53°32' E 009°56'0 0.5
2017-Oct-17 20:30N 53°32' E 009°55'2 3.5
2017-Oct-17 20:01N 53°33' E 009°58'1 2.0
2017-Oct-17 19:30N 53°32' E 009°59'0 0.0
2017-Oct-17 19:00N 53°32' E 009°59'0 0.0
2017-Oct-17 18:30N 53°32' E 009°59'0 0.0
2017-Oct-17 18:00N 53°32' E 009°59'0 0.0
2017-Oct-17 17:30N 53°32' E 009°59'0 0.0
2017-Oct-17 16:59N 53°32' E 009°59'0 0.0
2017-Oct-17 16:30N 53°32' E 009°59'0 0.0
2017-Oct-17 15:59N 53°32' E 009°59'0 0.0
2017-Oct-17 15:30N 53°32' E 009°59'0 0.0
2017-Oct-17 15:00N 53°32' E 009°59'0 0.0
2017-Oct-17 14:30N 53°32' E 009°59'0 0.0
2017-Oct-17 14:00N 53°32' E 009°59'0 0.0
2017-Oct-17 13:30N 53°32' E 009°59'0 0.0
2017-Oct-17 13:00N 53°32' E 009°59'0 0.0
2017-Oct-17 12:30N 53°32' E 009°59'0 0.0
2017-Oct-17 12:00N 53°32' E 009°59'0 0.0
2017-Oct-17 11:30N 53°32' E 009°59'0 0.0
2017-Oct-17 11:00N 53°32' E 009°59'0 0.0
2017-Oct-17 10:29N 53°32' E 009°59'0 0.0
2017-Oct-17 10:00N 53°32' E 009°59'0 0.0
2017-Oct-17 09:30N 53°32' E 009°59'0 0.0
2017-Oct-17 09:00N 53°32' E 009°59'0 0.0
2017-Oct-17 08:31N 53°32' E 009°59'2 4.6
2017-Oct-17 08:00N 53°32' E 009°55'510.2
2017-Oct-17 07:31N 53°33' E 009°47'612.2
2017-Oct-17 07:01N 53°35' E 009°37'612.8
2017-Oct-17 06:30N 53°40' E 009°31'714.1
2017-Oct-17 06:00N 53°46' E 009°24'713.8
2017-Oct-17 05:30N 53°52' E 009°17'612.6
2017-Oct-17 05:01N 53°53' E 009°07'612.7
2017-Oct-17 04:30N 53°51' E 008°57'612.9
2017-Oct-17 04:00N 53°51' E 008°46'611.1
2017-Oct-17 03:30N 53°55' E 008°40'612.7
2017-Oct-17 03:00N 53°58' E 008°30'814.4
2017-Oct-17 02:26N 53°60' E 008°17'510.4
2017-Oct-17 01:59N 53°59' E 008°09'1812.5
2017-Oct-17 00:34N 53°56' E 007°39'612.6
2017-Oct-17 00:05N 53°55' E 007°29'112.3
2017-Oct-16 23:59N 53°54' E 007°27'612.3
2017-Oct-16 23:28N 53°53' E 007°17'912.6
2017-Oct-16 22:48N 53°50' E 007°03'512.8
2017-Oct-16 22:25N 53°49' E 006°54'4612.5
2017-Oct-16 18:46N 53°38' E 005°40'412.8
2017-Oct-16 18:29N 53°37' E 005°34'713.0
2017-Oct-16 17:59N 53°35' E 005°24'612.7
2017-Oct-16 17:30N 53°33' E 005°14'713.1
2017-Oct-16 17:00N 53°30' E 005°04'714.3
2017-Oct-16 16:30N 53°27' E 004°53'815.3
2017-Oct-16 16:00N 53°22' E 004°42'816.1
2017-Oct-16 15:28N 53°15' E 004°36'715.8
2017-Oct-16 15:00N 53°09' E 004°30'815.6
2017-Oct-16 14:30N 53°02' E 004°23'1615.7
2017-Oct-16 13:30N 52°48' E 004°12'815.6
2017-Oct-16 13:00N 52°41' E 004°04'815.6
2017-Oct-16 12:30N 52°35' E 003°57'815.7
2017-Oct-16 12:00N 52°27' E 003°54'816.0
2017-Oct-16 11:30N 52°19' E 003°52'815.7
2017-Oct-16 11:00N 52°12' E 003°54'815.4
2017-Oct-16 10:30N 52°04' E 003°55'611.9
2017-Oct-16 10:00N 51°60' E 004°01'715.0
2017-Oct-16 09:30N 51°56' E 004°12'611.5
2017-Oct-16 09:00N 51°54' E 004°20'3 6.1
2017-Oct-16 08:30N 51°53' E 004°25'0 0.1
2017-Oct-16 07:59N 51°53' E 004°25'0 0.0
2017-Oct-16 07:29N 51°53' E 004°25'0 0.0
2017-Oct-16 06:59N 51°53' E 004°25'0 0.0
2017-Oct-16 06:29N 51°53' E 004°25'0 0.0
2017-Oct-16 05:59N 51°53' E 004°25'0 0.0
2017-Oct-16 05:29N 51°53' E 004°25'0 0.0
2017-Oct-16 04:59N 51°53' E 004°25'0 0.0
2017-Oct-16 04:29N 51°53' E 004°25'0 0.0
2017-Oct-16 03:59N 51°53' E 004°25'0 0.0
2017-Oct-16 03:29N 51°53' E 004°25'0 0.0
2017-Oct-16 02:59N 51°53' E 004°25'0 0.0
2017-Oct-16 02:29N 51°53' E 004°25'0 0.0
2017-Oct-16 01:59N 51°53' E 004°25'0 0.0
2017-Oct-16 01:29N 51°53' E 004°25'0 0.0
2017-Oct-16 00:59N 51°53' E 004°25'0 0.0
2017-Oct-16 00:29N 51°53' E 004°25'0 0.0
2017-Oct-15 23:59N 51°53' E 004°25'0 0.0
2017-Oct-15 23:29N 51°53' E 004°25'0 0.0
2017-Oct-15 22:59N 51°53' E 004°25'0 0.0
2017-Oct-15 22:29N 51°53' E 004°25'0 0.0
2017-Oct-15 21:59N 51°53' E 004°25'0 0.2
2017-Oct-15 21:31N 51°53' E 004°25'2 4.8
2017-Oct-15 21:01N 51°54' E 004°22'510.4
2017-Oct-15 20:30N 51°56' E 004°13'611.1
2017-Oct-15 20:00N 51°59' E 004°06'5 9.6
2017-Oct-15 19:30N 51°60' E 003°59'5 9.9
2017-Oct-15 19:00N 51°59' E 003°51'5 9.3
2017-Oct-15 18:30N 51°58' E 003°43'5 9.2
2017-Oct-15 18:00N 51°56' E 003°36'3 5.5
2017-Oct-15 17:29N 51°54' E 003°35'0 0.0
2017-Oct-15 16:53N 51°54' E 003°35'0 0.0
2017-Oct-15 16:26N 51°54' E 003°35'0 0.2
2017-Oct-15 15:53N 51°54' E 003°35'0 0.1
2017-Oct-15 15:08N 51°54' E 003°35'0 0.1
2017-Oct-15 14:50N 51°54' E 003°35'0 0.0
2017-Oct-15 13:59N 51°54' E 003°35'0 0.0
2017-Oct-15 13:26N 51°54' E 003°35'0 0.0
2017-Oct-15 12:59N 51°54' E 003°35'0 0.0
2017-Oct-15 12:29N 51°54' E 003°35'0 0.0
2017-Oct-15 11:59N 51°54' E 003°35'0 0.0
2017-Oct-15 11:26N 51°54' E 003°35'0 0.0
2017-Oct-15 10:56N 51°54' E 003°35'0 0.0
2017-Oct-15 10:29N 51°54' E 003°35'0 0.0
2017-Oct-15 09:59N 51°54' E 003°35'0 0.0
2017-Oct-15 09:29N 51°54' E 003°35'0 0.0
2017-Oct-15 08:59N 51°54' E 003°35'2 4.1
2017-Oct-15 08:30N 51°56' E 003°36'714.5
2017-Oct-15 08:00N 51°55' E 003°24'815.5
2017-Oct-15 07:30N 51°52' E 003°12'815.3
2017-Oct-15 07:00N 51°50' E 003°00'815.1
2017-Oct-15 06:27N 51°48' E 002°47'614.2
2017-Oct-15 06:00N 51°48' E 002°37'714.6
2017-Oct-15 05:31N 51°52' E 002°26'714.0
2017-Oct-15 05:00N 51°47' E 002°18'713.9
2017-Oct-15 04:30N 51°42' E 002°11'713.9
2017-Oct-15 04:00N 51°37' E 002°03'713.7
2017-Oct-15 03:30N 51°33' E 001°53'714.4
2017-Oct-15 03:00N 51°31' E 001°42'714.6
2017-Oct-15 02:30N 51°27' E 001°32'5 9.6
2017-Oct-15 02:00N 51°28' E 001°24'816.0
2017-Oct-15 01:30N 51°29' E 001°12'612.0
2017-Oct-15 01:00N 51°30' E 001°02'816.8
2017-Oct-15 00:30N 51°29' E 000°49'917.7
2017-Oct-15 00:00N 51°30' E 000°34'3 0.4
2017-Oct-14 14:13N 51°30' E 000°40'613.5
2017-Oct-14 13:48N 51°29' E 000°49'414.2
2017-Oct-14 13:30N 51°29' E 000°56'714.2
2017-Oct-14 13:00N 51°32' E 001°06'714.3
2017-Oct-14 12:30N 51°35' E 001°16'510.2
2017-Oct-14 12:00N 51°34' E 001°24'713.8
2017-Oct-14 11:30N 51°29' E 001°30'613.0
2017-Oct-14 11:00N 51°23' E 001°35'815.2
2017-Oct-14 10:30N 51°16' E 001°40'815.5
2017-Oct-14 10:01N 51°08' E 001°42'917.2
2017-Oct-14 09:29N 51°01' E 001°33'1217.2
2017-Oct-14 08:46N 50°50' E 001°24'517.2
2017-Oct-14 08:28N 50°45' E 001°22'716.2
2017-Oct-14 08:00N 50°40' E 001°14'1116.6
2017-Oct-14 07:22N 50°33' E 001°01'616.2
2017-Oct-14 06:58N 50°30' E 000°52'1916.3
2017-Oct-14 05:48N 50°23' E 000°24'516.5
2017-Oct-14 05:29N 50°22' E 000°17'2417.1
2017-Oct-14 04:06N 50°15' W 000°19'217.7
2017-Oct-14 03:59N 50°14' W 000°22'817.8
2017-Oct-14 03:31N 50°12' W 000°35'918.0
2017-Oct-14 03:00N 50°10' W 000°48'918.3
2017-Oct-14 02:30N 50°08' W 001°02'918.4
2017-Oct-14 02:00N 50°06' W 001°16'918.3
2017-Oct-14 01:31N 50°04' W 001°30'918.1
2017-Oct-14 01:01N 50°01' W 001°44'917.9
2017-Oct-14 00:30N 49°58' W 001°57'2017.1
2017-Oct-13 23:20N 49°52' W 002°27'516.4
2017-Oct-13 23:00N 49°51' W 002°35'816.3
2017-Oct-13 22:31N 49°48' W 002°47'816.1
2017-Oct-13 22:01N 49°45' W 002°58'816.1
2017-Oct-13 21:31N 49°41' W 003°09'1016.0
2017-Oct-13 20:54N 49°37' W 003°22'616.0
2017-Oct-13 20:30N 49°33' W 003°31'915.9
2017-Oct-13 19:56N 49°29' W 003°43'716.0
2017-Oct-13 19:30N 49°26' W 003°52'2715.7
2017-Oct-13 17:47N 49°12' W 004°28'1515.5
2017-Oct-13 16:48N 49°05' W 004°48'1115.4
2017-Oct-13 16:06N 48°60' W 005°03'215.3
2017-Oct-13 15:59N 48°59' W 005°05'2215.6
2017-Oct-13 14:33N 48°48' W 005°35'115.2
2017-Oct-13 14:30N 48°48' W 005°36'53715.3
2017-Oct-12 03:20N 40°22' W 009°50'515.6
2017-Oct-12 03:01N 40°17' W 009°50'815.4
2017-Oct-12 02:30N 40°09' W 009°50'815.4
2017-Oct-12 02:00N 40°02' W 009°50'815.3
2017-Oct-12 01:30N 39°54' W 009°50'815.3
2017-Oct-12 01:00N 39°46' W 009°49'815.4
2017-Oct-12 00:31N 39°39' W 009°49'815.4
2017-Oct-12 00:01N 39°31' W 009°50'815.6
2017-Oct-11 23:30N 39°23' W 009°50'815.4
2017-Oct-11 23:00N 39°16' W 009°51'815.3
2017-Oct-11 22:31N 39°08' W 009°51'815.1
2017-Oct-11 22:00N 39°00' W 009°51'815.2
2017-Oct-11 21:30N 38°53' W 009°51'815.1
2017-Oct-11 21:01N 38°45' W 009°51'815.5
2017-Oct-11 20:31N 38°37' W 009°50'714.7
2017-Oct-11 20:00N 38°33' W 009°42'816.1
2017-Oct-11 19:31N 38°29' W 009°33'816.1
2017-Oct-11 19:01N 38°25' W 009°24'816.4
2017-Oct-11 18:30N 38°23' W 009°14'815.9
2017-Oct-11 18:01N 38°24' W 009°04'713.4
2017-Oct-11 17:30N 38°28' W 008°57'5 8.7
2017-Oct-11 16:59N 38°31' W 008°52'107 6.3
2017-Oct-10 23:57N 36°44' W 008°46'817.2
2017-Oct-10 23:30N 36°44' W 008°36'816.6
2017-Oct-10 23:00N 36°45' W 008°26'816.6
2017-Oct-10 22:30N 36°47' W 008°16'816.2
2017-Oct-10 22:00N 36°49' W 008°06'  
Track history (hours):
 
Tides and Currents Weather Stations Pressure Air Temp Water Temp Dewpoint Dewpoint Depression Visibility Wind Speed Wind Dir Waves Ship Positions

Meera

Last reported at 2017-Oct-20 05:00 UTC. Time now 2017-Oct-20 05:25 UTC.
Position N 55°28' E 014°53'.

Length 140 m; draft 7.6 m.

Type: Ship (hazmat cat A). MMSI: 305643000.

Date/timePositionNaut miles runAvg speedWind from/ knotsBaromVisibWave heightAir tempDewpointWater temp
2017-Oct-20 05:00N 55°28' E 014°53'714.4
2017-Oct-20 04:30N 55°24' E 014°42'714.4
2017-Oct-20 04:00N 55°19' E 014°34'714.5
2017-Oct-20 03:30N 55°13' E 014°26'714.8
2017-Oct-20 03:00N 55°07' E 014°17'714.4
2017-Oct-20 02:30N 55°02' E 014°09'1014.2
2017-Oct-20 01:50N 54°59' E 013°53'1314.4
2017-Oct-20 00:57N 54°54' E 013°33'714.0
2017-Oct-20 00:25N 54°52' E 013°21'914.0
2017-Oct-19 23:47N 54°48' E 013°06'413.7
2017-Oct-19 23:30N 54°47' E 012°60'913.5
2017-Oct-19 22:49N 54°44' E 012°45'413.8
2017-Oct-19 22:30N 54°43' E 012°38'713.9
2017-Oct-19 22:00N 54°39' E 012°28'713.6
2017-Oct-19 21:30N 54°34' E 012°18'713.7
2017-Oct-19 20:58N 54°27' E 012°14'612.5
2017-Oct-19 20:31N 54°24' E 012°06'913.2
2017-Oct-19 19:49N 54°25' E 011°50'413.3
2017-Oct-19 19:30N 54°25' E 011°43'713.5
2017-Oct-19 19:01N 54°28' E 011°33'713.2
2017-Oct-19 18:31N 54°31' E 011°23'612.4
2017-Oct-19 18:01N 54°34' E 011°13'611.6
2017-Oct-19 17:31N 54°35' E 011°03'612.4
2017-Oct-19 17:01N 54°34' E 010°53'713.3
2017-Oct-19 16:30N 54°33' E 010°41'713.5
2017-Oct-19 16:00N 54°32' E 010°30'912.1
2017-Oct-19 15:17N 54°28' E 010°16'13 6.0
2017-Oct-19 13:07N 54°21' E 009°58'1 5.4
2017-Oct-19 12:54N 54°20' E 009°56'3 8.0
2017-Oct-19 12:30N 54°22' E 009°51'4 7.2
2017-Oct-19 12:00N 54°21' E 009°45'3 5.7
2017-Oct-19 11:30N 54°18' E 009°43'4 7.8
2017-Oct-19 11:00N 54°16' E 009°37'4 8.1
2017-Oct-19 10:30N 54°12' E 009°34'4 8.4
2017-Oct-19 10:00N 54°11' E 009°27'4 8.4
2017-Oct-19 09:30N 54°09' E 009°21'4 8.2
2017-Oct-19 09:00N 54°05' E 009°19'4 8.2
2017-Oct-19 08:30N 54°01' E 009°18'4 8.2
2017-Oct-19 08:00N 53°57' E 009°14'4 8.6
2017-Oct-19 07:30N 53°54' E 009°09'0 0.9
2017-Oct-19 07:00N 53°54' E 009°09'1 1.5
2017-Oct-19 06:30N 53°53' E 009°08'1 1.5
2017-Oct-19 06:00N 53°53' E 009°06'0 1.0
2017-Oct-19 05:30N 53°53' E 009°06'2 3.4
2017-Oct-19 05:00N 53°53' E 009°08'510.9
2017-Oct-19 04:30N 53°52' E 009°18'816.6
2017-Oct-19 04:01N 53°45' E 009°25'816.0
2017-Oct-19 03:30N 53°38' E 009°32'714.8
2017-Oct-19 03:00N 53°34' E 009°42'510.1
2017-Oct-19 02:30N 53°33' E 009°51'4 7.7
2017-Oct-19 02:00N 53°32' E 009°57'0 0.3
2017-Oct-19 01:30N 53°32' E 009°57'0 0.0
2017-Oct-19 01:00N 53°32' E 009°57'0 0.0
2017-Oct-19 00:30N 53°32' E 009°57'0 0.0
2017-Oct-19 00:00N 53°32' E 009°57'0 0.0
2017-Oct-18 23:30N 53°32' E 009°57'0 0.0
2017-Oct-18 23:00N 53°32' E 009°57'0 0.0
2017-Oct-18 22:30N 53°32' E 009°57'0 0.0
2017-Oct-18 22:00N 53°32' E 009°57'0 0.0
2017-Oct-18 21:30N 53°32' E 009°57'0 0.9
2017-Oct-18 21:00N 53°32' E 009°56'2 3.4
2017-Oct-18 20:30N 53°30' E 009°56'0 0.3
2017-Oct-18 19:59N 53°30' E 009°56'0 0.0
2017-Oct-18 19:29N 53°30' E 009°56'0 0.0
2017-Oct-18 18:59N 53°30' E 009°56'0 0.0
2017-Oct-18 18:29N 53°30' E 009°56'0 0.0
2017-Oct-18 17:59N 53°30' E 009°56'0 0.0
2017-Oct-18 17:29N 53°30' E 009°56'0 0.0
2017-Oct-18 16:59N 53°30' E 009°56'0 0.0
2017-Oct-18 16:29N 53°30' E 009°56'0 0.0
2017-Oct-18 15:59N 53°30' E 009°56'0 0.0
2017-Oct-18 15:29N 53°30' E 009°56'0 0.0
2017-Oct-18 14:59N 53°30' E 009°56'0 0.0
2017-Oct-18 13:59N 53°30' E 009°56'0 0.1
2017-Oct-18 13:31N 53°30' E 009°56'1 1.4
2017-Oct-18 13:00N 53°31' E 009°56'2 3.2
2017-Oct-18 12:30N 53°32' E 009°55'1 1.3
2017-Oct-18 11:59N 53°32' E 009°56'0 0.0
2017-Oct-18 11:29N 53°32' E 009°56'0 0.0
2017-Oct-18 10:59N 53°32' E 009°56'0 0.0
2017-Oct-18 10:29N 53°32' E 009°56'0 0.0
2017-Oct-18 09:59N 53°32' E 009°56'0 0.0
2017-Oct-18 09:29N 53°32' E 009°56'0 0.0
2017-Oct-18 08:59N 53°32' E 009°56'0 0.0
2017-Oct-18 08:29N 53°32' E 009°56'0 0.0
2017-Oct-18 07:59N 53°32' E 009°56'0 0.0
2017-Oct-18 07:29N 53°32' E 009°56'0 0.0
2017-Oct-18 06:59N 53°32' E 009°56'0 0.0
2017-Oct-18 06:29N 53°32' E 009°56'0 0.0
2017-Oct-18 05:59N 53°32' E 009°56'0 0.0
2017-Oct-18 05:29N 53°32' E 009°56'0 0.0
2017-Oct-18 04:59N 53°32' E 009°56'0 0.0
2017-Oct-18 04:29N 53°32' E 009°56'0 0.0
2017-Oct-18 03:59N 53°32' E 009°56'0 0.0
2017-Oct-18 03:29N 53°32' E 009°56'0 0.0
2017-Oct-18 02:59N 53°32' E 009°56'0 0.0
2017-Oct-18 02:29N 53°32' E 009°56'0 0.0
2017-Oct-18 01:59N 53°32' E 009°56'0 0.0
2017-Oct-18 01:29N 53°32' E 009°56'0 0.0
2017-Oct-18 00:59N 53°32' E 009°56'0 0.0
2017-Oct-18 00:29N 53°32' E 009°56'0 0.0
2017-Oct-17 23:59N 53°32' E 009°56'0 0.0
2017-Oct-17 23:29N 53°32' E 009°56'0 0.0
2017-Oct-17 22:59N 53°32' E 009°56'0 0.0
2017-Oct-17 22:29N 53°32' E 009°56'0 0.0
2017-Oct-17 21:59N 53°32' E 009°56'0 0.0
2017-Oct-17 21:29N 53°32' E 009°56'0 0.0
2017-Oct-17 20:59N 53°32' E 009°56'0 0.5
2017-Oct-17 20:30N 53°32' E 009°55'2 3.5
2017-Oct-17 20:01N 53°33' E 009°58'1 2.0
2017-Oct-17 19:30N 53°32' E 009°59'0 0.0
2017-Oct-17 19:00N 53°32' E 009°59'0 0.0
2017-Oct-17 18:30N 53°32' E 009°59'0 0.0
2017-Oct-17 18:00N 53°32' E 009°59'0 0.0
2017-Oct-17 17:30N 53°32' E 009°59'0 0.0
2017-Oct-17 16:59N 53°32' E 009°59'0 0.0
2017-Oct-17 16:30N 53°32' E 009°59'0 0.0
2017-Oct-17 15:59N 53°32' E 009°59'0 0.0
2017-Oct-17 15:30N 53°32' E 009°59'0 0.0
2017-Oct-17 15:00N 53°32' E 009°59'0 0.0
2017-Oct-17 14:30N 53°32' E 009°59'0 0.0
2017-Oct-17 14:00N 53°32' E 009°59'0 0.0
2017-Oct-17 13:30N 53°32' E 009°59'0 0.0
2017-Oct-17 13:00N 53°32' E 009°59'0 0.0
2017-Oct-17 12:30N 53°32' E 009°59'0 0.0
2017-Oct-17 12:00N 53°32' E 009°59'0 0.0
2017-Oct-17 11:30N 53°32' E 009°59'0 0.0
2017-Oct-17 11:00N 53°32' E 009°59'0 0.0
2017-Oct-17 10:29N 53°32' E 009°59'0 0.0
2017-Oct-17 10:00N 53°32' E 009°59'0 0.0
2017-Oct-17 09:30N 53°32' E 009°59'0 0.0
2017-Oct-17 09:00N 53°32' E 009°59'0 0.0
2017-Oct-17 08:31N 53°32' E 009°59'2 4.6
2017-Oct-17 08:00N 53°32' E 009°55'510.2
2017-Oct-17 07:31N 53°33' E 009°47'612.2
2017-Oct-17 07:01N 53°35' E 009°37'612.8
2017-Oct-17 06:30N 53°40' E 009°31'714.1
2017-Oct-17 06:00N 53°46' E 009°24'713.8
2017-Oct-17 05:30N 53°52' E 009°17'612.6
2017-Oct-17 05:01N 53°53' E 009°07'612.7
2017-Oct-17 04:30N 53°51' E 008°57'612.9
2017-Oct-17 04:00N 53°51' E 008°46'611.1
2017-Oct-17 03:30N 53°55' E 008°40'612.7
2017-Oct-17 03:00N 53°58' E 008°30'814.4
2017-Oct-17 02:26N 53°60' E 008°17'510.4
2017-Oct-17 01:59N 53°59' E 008°09'1812.5
2017-Oct-17 00:34N 53°56' E 007°39'612.6
2017-Oct-17 00:05N 53°55' E 007°29'112.3
2017-Oct-16 23:59N 53°54' E 007°27'612.3
2017-Oct-16 23:28N 53°53' E 007°17'912.6
2017-Oct-16 22:48N 53°50' E 007°03'512.8
2017-Oct-16 22:25N 53°49' E 006°54'4612.5
2017-Oct-16 18:46N 53°38' E 005°40'412.8
2017-Oct-16 18:29N 53°37' E 005°34'713.0
2017-Oct-16 17:59N 53°35' E 005°24'612.7
2017-Oct-16 17:30N 53°33' E 005°14'713.1
2017-Oct-16 17:00N 53°30' E 005°04'714.3
2017-Oct-16 16:30N 53°27' E 004°53'815.3
2017-Oct-16 16:00N 53°22' E 004°42'816.1
2017-Oct-16 15:28N 53°15' E 004°36'715.8
2017-Oct-16 15:00N 53°09' E 004°30'815.6
2017-Oct-16 14:30N 53°02' E 004°23'1615.7
2017-Oct-16 13:30N 52°48' E 004°12'815.6
2017-Oct-16 13:00N 52°41' E 004°04'815.6
2017-Oct-16 12:30N 52°35' E 003°57'815.7
2017-Oct-16 12:00N 52°27' E 003°54'816.0
2017-Oct-16 11:30N 52°19' E 003°52'815.7
2017-Oct-16 11:00N 52°12' E 003°54'815.4
2017-Oct-16 10:30N 52°04' E 003°55'611.9
2017-Oct-16 10:00N 51°60' E 004°01'715.0
2017-Oct-16 09:30N 51°56' E 004°12'611.5
2017-Oct-16 09:00N 51°54' E 004°20'3 6.1
2017-Oct-16 08:30N 51°53' E 004°25'0 0.1
2017-Oct-16 07:59N 51°53' E 004°25'0 0.0
2017-Oct-16 07:29N 51°53' E 004°25'0 0.0
2017-Oct-16 06:59N 51°53' E 004°25'0 0.0
2017-Oct-16 06:29N 51°53' E 004°25'0 0.0
2017-Oct-16 05:59N 51°53' E 004°25'0 0.0
2017-Oct-16 05:29N 51°53' E 004°25'0 0.0
2017-Oct-16 04:59N 51°53' E 004°25'0 0.0
2017-Oct-16 04:29N 51°53' E 004°25'0 0.0
2017-Oct-16 03:59N 51°53' E 004°25'0 0.0
2017-Oct-16 03:29N 51°53' E 004°25'0 0.0
2017-Oct-16 02:59N 51°53' E 004°25'0 0.0
2017-Oct-16 02:29N 51°53' E 004°25'0 0.0
2017-Oct-16 01:59N 51°53' E 004°25'0 0.0
2017-Oct-16 01:29N 51°53' E 004°25'0 0.0
2017-Oct-16 00:59N 51°53' E 004°25'0 0.0
2017-Oct-16 00:29N 51°53' E 004°25'0 0.0
2017-Oct-15 23:59N 51°53' E 004°25'0 0.0
2017-Oct-15 23:29N 51°53' E 004°25'0 0.0
2017-Oct-15 22:59N 51°53' E 004°25'0 0.0
2017-Oct-15 22:29N 51°53' E 004°25'0 0.0
2017-Oct-15 21:59N 51°53' E 004°25'0 0.2
2017-Oct-15 21:31N 51°53' E 004°25'2 4.8
2017-Oct-15 21:01N 51°54' E 004°22'510.4
2017-Oct-15 20:30N 51°56' E 004°13'611.1
2017-Oct-15 20:00N 51°59' E 004°06'5 9.6
2017-Oct-15 19:30N 51°60' E 003°59'5 9.9
2017-Oct-15 19:00N 51°59' E 003°51'5 9.3
2017-Oct-15 18:30N 51°58' E 003°43'5 9.2
2017-Oct-15 18:00N 51°56' E 003°36'3 5.5
2017-Oct-15 17:29N 51°54' E 003°35'0 0.0
2017-Oct-15 16:53N 51°54' E 003°35'0 0.0
2017-Oct-15 16:26N 51°54' E 003°35'0 0.2
2017-Oct-15 15:53N 51°54' E 003°35'0 0.1
2017-Oct-15 15:08N 51°54' E 003°35'0 0.1
2017-Oct-15 14:50N 51°54' E 003°35'0 0.0
2017-Oct-15 13:59N 51°54' E 003°35'0 0.0
2017-Oct-15 13:26N 51°54' E 003°35'0 0.0
2017-Oct-15 12:59N 51°54' E 003°35'0 0.0
2017-Oct-15 12:29N 51°54' E 003°35'0 0.0
2017-Oct-15 11:59N 51°54' E 003°35'0 0.0
2017-Oct-15 11:26N 51°54' E 003°35'0 0.0
2017-Oct-15 10:56N 51°54' E 003°35'0 0.0
2017-Oct-15 10:29N 51°54' E 003°35'0 0.0
2017-Oct-15 09:59N 51°54' E 003°35'0 0.0
2017-Oct-15 09:29N 51°54' E 003°35'0 0.0
2017-Oct-15 08:59N 51°54' E 003°35'2 4.1
2017-Oct-15 08:30N 51°56' E 003°36'714.5
2017-Oct-15 08:00N 51°55' E 003°24'815.5
2017-Oct-15 07:30N 51°52' E 003°12'815.3
2017-Oct-15 07:00N 51°50' E 003°00'815.1
2017-Oct-15 06:27N 51°48' E 002°47'614.2
2017-Oct-15 06:00N 51°48' E 002°37'714.6
2017-Oct-15 05:31N 51°52' E 002°26'714.0
2017-Oct-15 05:00N 51°47' E 002°18'713.9
2017-Oct-15 04:30N 51°42' E 002°11'713.9
2017-Oct-15 04:00N 51°37' E 002°03'713.7
2017-Oct-15 03:30N 51°33' E 001°53'714.4
2017-Oct-15 03:00N 51°31' E 001°42'714.6
2017-Oct-15 02:30N 51°27' E 001°32'5 9.6
2017-Oct-15 02:00N 51°28' E 001°24'816.0
2017-Oct-15 01:30N 51°29' E 001°12'612.0
2017-Oct-15 01:00N 51°30' E 001°02'816.8
2017-Oct-15 00:30N 51°29' E 000°49'917.7
2017-Oct-15 00:00N 51°30' E 000°34'3 0.4
2017-Oct-14 14:13N 51°30' E 000°40'613.5
2017-Oct-14 13:48N 51°29' E 000°49'414.2
2017-Oct-14 13:30N 51°29' E 000°56'714.2
2017-Oct-14 13:00N 51°32' E 001°06'714.3
2017-Oct-14 12:30N 51°35' E 001°16'510.2
2017-Oct-14 12:00N 51°34' E 001°24'713.8
2017-Oct-14 11:30N 51°29' E 001°30'613.0
2017-Oct-14 11:00N 51°23' E 001°35'815.2
2017-Oct-14 10:30N 51°16' E 001°40'815.5
2017-Oct-14 10:01N 51°08' E 001°42'917.2
2017-Oct-14 09:29N 51°01' E 001°33'1217.2
2017-Oct-14 08:46N 50°50' E 001°24'517.2
2017-Oct-14 08:28N 50°45' E 001°22'716.2
2017-Oct-14 08:00N 50°40' E 001°14'1116.6
2017-Oct-14 07:22N 50°33' E 001°01'616.2
2017-Oct-14 06:58N 50°30' E 000°52'1916.3
2017-Oct-14 05:48N 50°23' E 000°24'516.5
2017-Oct-14 05:29N 50°22' E 000°17'2417.1
2017-Oct-14 04:06N 50°15' W 000°19'217.7
2017-Oct-14 03:59N 50°14' W 000°22'817.8
2017-Oct-14 03:31N 50°12' W 000°35'918.0
2017-Oct-14 03:00N 50°10' W 000°48'918.3
2017-Oct-14 02:30N 50°08' W 001°02'918.4
2017-Oct-14 02:00N 50°06' W 001°16'918.3
2017-Oct-14 01:31N 50°04' W 001°30'918.1
2017-Oct-14 01:01N 50°01' W 001°44'917.9
2017-Oct-14 00:30N 49°58' W 001°57'2017.1
2017-Oct-13 23:20N 49°52' W 002°27'516.4
2017-Oct-13 23:00N 49°51' W 002°35'816.3
2017-Oct-13 22:31N 49°48' W 002°47'816.1
2017-Oct-13 22:01N 49°45' W 002°58'816.1
2017-Oct-13 21:31N 49°41' W 003°09'1016.0
2017-Oct-13 20:54N 49°37' W 003°22'616.0
2017-Oct-13 20:30N 49°33' W 003°31'915.9
2017-Oct-13 19:56N 49°29' W 003°43'716.0
2017-Oct-13 19:30N 49°26' W 003°52'2715.7
2017-Oct-13 17:47N 49°12' W 004°28'1515.5
2017-Oct-13 16:48N 49°05' W 004°48'1115.4
2017-Oct-13 16:06N 48°60' W 005°03'215.3
2017-Oct-13 15:59N 48°59' W 005°05'2215.6
2017-Oct-13 14:33N 48°48' W 005°35'115.2
2017-Oct-13 14:30N 48°48' W 005°36'53715.3
2017-Oct-12 03:20N 40°22' W 009°50'515.6
2017-Oct-12 03:01N 40°17' W 009°50'815.4
2017-Oct-12 02:30N 40°09' W 009°50'815.4
2017-Oct-12 02:00N 40°02' W 009°50'815.3
2017-Oct-12 01:30N 39°54' W 009°50'815.3
2017-Oct-12 01:00N 39°46' W 009°49'815.4
2017-Oct-12 00:31N 39°39' W 009°49'815.4
2017-Oct-12 00:01N 39°31' W 009°50'815.6
2017-Oct-11 23:30N 39°23' W 009°50'815.4
2017-Oct-11 23:00N 39°16' W 009°51'815.3
2017-Oct-11 22:31N 39°08' W 009°51'815.1
2017-Oct-11 22:00N 39°00' W 009°51'815.2
2017-Oct-11 21:30N 38°53' W 009°51'815.1
2017-Oct-11 21:01N 38°45' W 009°51'815.5
2017-Oct-11 20:31N 38°37' W 009°50'714.7
2017-Oct-11 20:00N 38°33' W 009°42'816.1
2017-Oct-11 19:31N 38°29' W 009°33'816.1
2017-Oct-11 19:01N 38°25' W 009°24'816.4
2017-Oct-11 18:30N 38°23' W 009°14'815.9
2017-Oct-11 18:01N 38°24' W 009°04'713.4
2017-Oct-11 17:30N 38°28' W 008°57'5 8.7
2017-Oct-11 16:59N 38°31' W 008°52'107 6.3
2017-Oct-10 23:57N 36°44' W 008°46'817.2
2017-Oct-10 23:30N 36°44' W 008°36'816.6
2017-Oct-10 23:00N 36°45' W 008°26'816.6
2017-Oct-10 22:30N 36°47' W 008°16'816.2
2017-Oct-10 22:00N 36°49' W 008°06'  

Dump ship's entire track history